Etusivu
METAR-TAF:

METAR-TAF

Lentoasemat :

Mécheria, Algeria

Leveyspiiri: 34-56N, Pituuspiiri: 000-26W, korkeus merenpinnasta: 1149 m

Tämänhetkinen sää

Tämä raportti tehtiin 11 tuntia ja 50 minuuttia sitten, kello 18.00 UTC
Tuuli 14 kn pohjoisen/luoteesta
Lämpötila 16°C
Kosteus 34%
Ilmanpaine 1023 hPa
Näkyvyys 10 km tai enemmän
ei pilviä alle 1500 m:ssä eikä cumulonimbus-pilviä

METAR: DAAY 261800Z 34014KT CAVOK 16/00 Q1023

Aika: 06:50 (05:50 UTC)

Sääennuste

Tämä raportti tehtiin 9 tuntia ja 50 minuuttia sitten, kello 20.00 UTC
Ennuste voimassa 26. päivästä klo 21 UTC - 27. päivään klo 06 UTC
Tuuli 14 kn pohjoisen/luoteesta
Näkyvyys 10 km tai enemmän
ei pilviä alle 1500 m:ssä eikä cumulonimbus-pilviä
Tulossa
26. päivästä klo 21 UTC - 26. päivään klo 24 UTC
Tuuli 2 kn eri suunnista

TAF: DAAY 262000Z 2621/2706 34014KT CAVOK BECMG 2621/2624 VRB02KT

Säähavainnot ja -ennusteet yli 4000 lentoasemalta (METAR- ja TAF-raportit).

Käytössä olevat sääasemat on merkitty karttaan keltaisilla ja punaisilla pisteillä.

Aseta hiiri pisteen päälle nähdäksesi sääaseman nimen.

Klikkaa sitten nähdäksesi säähavainnot ja -ennusteet.

Kartan vaihtaminen: klikkaa mustalla rastilla varustettuja vihreitä pisteitä, niin voit zoomata sisään; viivalla varustettua vihreää pistettä, niin voit zoomata ulos tai vihreitä nuolia, niin pääset viereisille kartoille.


METAR-TAF: